The Hangar Logo

METARs in Plain English
Latest METAR information for EGVN - BRIZE NORTON

EGVN 031750Z 25010KT CAVOK 05/M01 Q1017 NOSIG

In plain english is....

This is a METAR report for EGVN - BRIZE NORTON .
The report was made 52 minutes ago, at 17:50 UTC.
The wind was blowing at a speed of 10 knots (11.5 miles per hour, 5.1 metres per second) from the West/Southwest (250°).
The visibility was greater than 6.2 miles (greater than 10 kilometres).
There were no clouds below 5,000 feet (1,524 metres).
The temperature was 5°C (41°F), a dew point of -1°C (30°F) and a relative humidity of 65.1%.
The altimeter setting (airfield QNH) was 1,017 hPa (30.03 inHg).
Other remarks NOSIG.

UK Mainland

Ireland

Channel Islands

France

Other



Enter
Tel: 07092 887559 - Fax: 07092 183262

Terms of Use | Privacy Statement
Content copyright © 1999-2012 TheHangar.co.uk. All rights reserved.
Please send your questions, comments, or bug reports to the Webmaster.